Time;durP1;ratioP1;P1;durP2;ratioP2;P2;SDS_P1;SDS_P2;PMS_P1;PMS_P2;Temp;Humidity;BMP_temperature;BMP_pressure;BME280_temperature;BME280_humidity;BME280_pressure;Samples;Min_cycle;Max_cycle;Signal;HPM_P1;HPM_P2
2022/10/13 00:02:19;;;;;;;22.53;14.03;;;;;;;10.48;100.00;98672.44;5099119;28;20274;-79
2022/10/13 00:04:46;;;;;;;20.20;14.07;;;;;;;10.50;100.00;98682.91;5098383;28;20471;-79
2022/10/13 00:07:12;;;;;;;21.73;14.67;;;;;;;10.50;100.00;98675.84;5097692;28;20303;-79
2022/10/13 00:09:39;;;;;;;25.93;16.20;;;;;;;10.52;100.00;98681.88;5099000;28;20272;-79
2022/10/13 00:12:06;;;;;;;25.10;16.27;;;;;;;10.60;100.00;98681.41;5098600;28;20321;-79
2022/10/13 00:14:34;;;;;;;21.77;14.83;;;;;;;10.58;100.00;98696.53;5103266;28;20522;-79
2022/10/13 00:17:00;;;;;;;21.77;15.00;;;;;;;10.53;100.00;98680.91;5098708;28;20586;-79
2022/10/13 00:19:29;;;;;;;23.13;14.77;;;;;;;10.49;100.00;98691.78;5098460;28;20273;-79
2022/10/13 00:21:55;;;;;;;25.17;15.40;;;;;;;10.47;100.00;98683.09;5098457;28;20278;-79
2022/10/13 00:24:22;;;;;;;24.60;15.67;;;;;;;10.45;100.00;98691.09;5116176;28;20257;-79
2022/10/13 00:26:51;;;;;;;19.87;13.57;;;;;;;10.42;100.00;98688.66;5116906;28;20264;-79
2022/10/13 00:29:18;;;;;;;23.23;15.40;;;;;;;10.39;100.00;98688.84;5116841;28;21333;-79
2022/10/13 00:31:46;;;;;;;19.47;13.83;;;;;;;10.36;100.00;98696.09;5114927;28;20259;-79
2022/10/13 00:34:12;;;;;;;20.80;14.40;;;;;;;10.37;100.00;98700.44;5115817;28;20246;-79
2022/10/13 00:36:39;;;;;;;20.37;14.43;;;;;;;10.44;100.00;98691.19;5116683;28;20267;-79
2022/10/13 00:39:07;;;;;;;19.13;13.53;;;;;;;10.49;100.00;98683.84;5116606;28;20247;-79
2022/10/13 00:41:34;;;;;;;20.43;13.27;;;;;;;10.48;100.00;98687.44;5116615;28;20228;-79
2022/10/13 00:44:03;;;;;;;21.23;13.43;;;;;;;10.47;100.00;98681.28;5115491;28;20646;-79
2022/10/13 00:46:31;;;;;;;20.33;13.67;;;;;;;10.45;100.00;98677.91;5116597;28;20549;-78
2022/10/13 00:49:04;;;;;;;20.10;12.97;;;;;;;10.47;100.00;98681.28;5116704;28;20353;-79
2022/10/13 00:51:35;;;;;;;21.33;14.10;;;;;;;10.47;100.00;98681.28;5115796;28;20260;-78
2022/10/13 00:54:05;;;;;;;19.53;12.93;;;;;;;10.46;100.00;98676.13;5097938;28;20309;-78
2022/10/13 00:56:33;;;;;;;17.67;12.63;;;;;;;10.44;100.00;98675.34;5100094;28;20595;-78
2022/10/13 00:59:01;;;;;;;19.37;12.63;;;;;;;10.42;100.00;98671.94;5096468;28;20261;-78
2022/10/13 01:01:27;;;;;;;20.70;13.00;;;;;;;10.42;100.00;98677.22;5098803;28;20229;-79
2022/10/13 01:03:54;;;;;;;26.50;15.03;;;;;;;10.48;100.00;98682.16;5097950;28;20639;-78
2022/10/13 01:06:22;;;;;;;23.53;15.07;;;;;;;10.58;100.00;98680.66;5097987;28;20261;-79
2022/10/13 01:08:49;;;;;;;21.93;13.77;;;;;;;10.61;100.00;98667.25;5098201;28;20286;-78
2022/10/13 01:11:27;;;;;;;22.10;14.03;;;;;;;10.61;100.00;98675.19;5098914;28;20226;-78
2022/10/13 01:13:59;;;;;;;18.97;13.07;;;;;;;10.58;100.00;98672.75;5097026;28;20280;-79
2022/10/13 01:16:34;;;;;;;20.47;13.60;;;;;;;10.56;100.00;98677.25;5097979;28;20593;-78
2022/10/13 01:19:19;;;;;;;23.40;14.63;;;;;;;10.60;100.00;98677.00;5098123;28;20261;-78
2022/10/13 01:22:04;;;;;;;21.70;14.73;;;;;;;10.66;100.00;98675.75;5103871;28;20260;-79
2022/10/13 01:24:44;;;;;;;24.17;14.97;;;;;;;10.73;100.00;98671.78;5102043;28;20219;-78
2022/10/13 01:27:34;;;;;;;27.63;16.13;;;;;;;10.85;100.00;98665.75;5098567;28;20257;-79
2022/10/13 01:30:09;;;;;;;24.37;15.47;;;;;;;10.96;100.00;98669.41;5097296;28;20222;-78
2022/10/13 01:32:55;;;;;;;27.40;16.57;;;;;;;11.01;100.00;98663.88;5097884;28;20262;-78
2022/10/13 01:35:31;;;;;;;24.50;15.40;;;;;;;11.01;100.00;98666.50;5097561;28;20276;-78
2022/10/13 01:38:05;;;;;;;27.77;15.93;;;;;;;10.99;100.00;98665.72;5097674;28;20267;-78
2022/10/13 01:40:38;;;;;;;21.80;14.37;;;;;;;10.97;100.00;98660.56;5097695;28;20352;-78
2022/10/13 01:43:10;;;;;;;23.50;15.60;;;;;;;10.95;100.00;98656.31;5115788;28;20231;-78
2022/10/13 01:45:44;;;;;;;24.83;15.07;;;;;;;10.86;100.00;98657.72;5116193;28;20275;-78
2022/10/13 01:48:11;;;;;;;23.00;14.63;;;;;;;10.78;100.00;98653.84;5115933;28;20265;-78
2022/10/13 01:50:39;;;;;;;24.83;15.87;;;;;;;10.78;100.00;98657.38;5113137;28;20260;-77
2022/10/13 01:53:07;;;;;;;24.27;15.70;;;;;;;10.77;100.00;98647.69;5115865;28;20235;-79
2022/10/13 01:55:34;;;;;;;25.03;15.87;;;;;;;10.81;100.00;98648.34;5110651;28;20316;-77
2022/10/13 01:58:00;;;;;;;30.93;17.17;;;;;;;10.80;100.00;98646.66;5097666;28;20254;-79
2022/10/13 02:00:33;;;;;;;26.53;16.43;;;;;;;10.79;100.00;98650.25;5098233;28;20645;-78
2022/10/13 02:03:13;;;;;;;26.93;16.87;;;;;;;10.78;100.00;98643.28;5097518;28;20647;-79
2022/10/13 02:05:48;;;;;;;25.77;16.40;;;;;;;10.79;100.00;98640.53;5097476;28;20269;-79
2022/10/13 02:08:24;;;;;;;26.00;16.63;;;;;;;10.80;100.00;98636.09;5099976;28;20254;-79
2022/10/13 02:10:57;;;;;;;27.10;15.77;;;;;;;10.82;100.00;98639.50;5100958;28;20252;-79
2022/10/13 02:13:29;;;;;;;23.57;15.07;;;;;;;10.79;100.00;98640.53;5100861;28;20227;-79
2022/10/13 02:16:00;;;;;;;24.83;15.83;;;;;;;10.75;100.00;98646.09;5099282;28;20258;-79
2022/10/13 02:18:31;;;;;;;24.70;16.27;;;;;;;10.72;100.00;98639.22;5118707;28;20233;-79
2022/10/13 02:20:59;;;;;;;25.87;16.20;;;;;;;10.68;100.00;98642.13;5119611;28;20258;-79
2022/10/13 02:23:27;;;;;;;25.70;16.90;;;;;;;10.64;100.00;98646.75;5119227;28;20263;-79
2022/10/13 02:25:56;;;;;;;24.57;15.87;;;;;;;10.58;100.00;98644.50;5118407;28;20260;-79
2022/10/13 02:28:24;;;;;;;22.93;15.67;;;;;;;10.56;100.00;98648.16;5100566;28;20226;-79
2022/10/13 02:30:50;;;;;;;32.17;19.17;;;;;;;10.57;100.00;98661.31;5100587;28;20592;-78
2022/10/13 02:33:17;;;;;;;30.20;18.57;;;;;;;10.65;100.00;98650.28;5100718;28;20581;-79
2022/10/13 02:35:45;;;;;;;26.70;17.07;;;;;;;10.68;100.00;98647.41;5101112;28;20242;-79
2022/10/13 02:38:12;;;;;;;28.27;17.67;;;;;;;10.75;100.00;98654.03;5100384;28;20581;-79
2022/10/13 02:40:39;;;;;;;28.77;17.87;;;;;;;10.85;100.00;98648.09;5100435;28;20255;-79
2022/10/13 02:43:06;;;;;;;31.77;19.20;;;;;;;10.95;100.00;98646.56;5098702;28;20308;-79
2022/10/13 02:45:32;;;;;;;28.93;17.90;;;;;;;11.08;100.00;98644.00;5100787;28;20275;-79
2022/10/13 02:47:59;;;;;;;27.73;17.60;;;;;;;11.16;100.00;98645.22;5100507;28;20267;-79
2022/10/13 02:50:26;;;;;;;28.67;18.07;;;;;;;11.25;100.00;98649.09;5100187;28;20263;-79
2022/10/13 02:52:54;;;;;;;29.00;17.87;;;;;;;11.27;100.00;98648.06;5100137;28;20258;-79
2022/10/13 02:55:21;;;;;;;28.57;17.23;;;;;;;11.29;100.00;98640.00;5102813;28;20316;-79
2022/10/13 02:57:47;;;;;;;27.03;17.20;;;;;;;11.28;100.00;98638.28;5100281;28;20777;-78
2022/10/13 03:00:15;;;;;;;28.27;17.07;;;;;;;11.23;100.00;98635.09;5100026;28;20270;-79
2022/10/13 03:02:42;;;;;;;26.57;16.50;;;;;;;11.13;100.00;98640.13;5100016;28;20258;-80
2022/10/13 03:05:09;;;;;;;26.93;15.90;;;;;;;11.03;100.00;98643.44;5099929;28;20225;-78
2022/10/13 03:07:36;;;;;;;25.67;16.03;;;;;;;10.88;100.00;98644.41;5116713;28;20290;-78
2022/10/13 03:10:05;;;;;;;25.27;15.83;;;;;;;10.76;100.00;98634.59;5117155;28;20584;-78
2022/10/13 03:12:31;;;;;;;25.80;16.73;;;;;;;10.69;100.00;98641.19;5118171;28;20261;-78
2022/10/13 03:14:58;;;;;;;29.83;18.90;;;;;;;10.63;100.00;98638.91;5118007;28;20279;-78
2022/10/13 03:17:25;;;;;;;32.03;18.63;;;;;;;10.70;100.00;98642.91;5117246;28;20276;-78
2022/10/13 03:19:51;;;;;;;30.00;19.40;;;;;;;10.73;100.00;98640.94;5117838;28;20247;-78
2022/10/13 03:22:18;;;;;;;32.67;19.23;;;;;;;10.75;100.00;98622.31;5117856;28;20268;-78
2022/10/13 03:24:45;;;;;;;29.97;18.23;;;;;;;10.81;100.00;98625.44;5118118;28;20257;-78
2022/10/13 03:27:14;;;;;;;28.70;17.97;;;;;;;10.86;100.00;98626.00;5116864;28;20265;-78
2022/10/13 03:29:42;;;;;;;31.73;19.13;;;;;;;10.95;100.00;98624.56;5118005;28;20586;-78
2022/10/13 03:32:08;;;;;;;29.07;17.83;;;;;;;11.04;100.00;98613.41;5117786;28;20671;-77
2022/10/13 03:34:35;;;;;;;33.70;19.03;;;;;;;11.09;100.00;98603.38;5116039;28;20279;-77
2022/10/13 03:37:02;;;;;;;30.47;18.23;;;;;;;11.17;100.00;98603.72;5116764;28;20261;-77
2022/10/13 03:39:28;;;;;;;30.80;17.73;;;;;;;11.23;100.00;98608.63;5118073;28;20269;-77
2022/10/13 03:41:55;;;;;;;32.10;17.33;;;;;;;11.17;100.00;98598.44;5117668;28;20267;-78
2022/10/13 03:44:23;;;;;;;27.77;16.67;;;;;;;11.07;100.00;98602.63;5117574;28;20218;-77
2022/10/13 03:46:50;;;;;;;28.30;16.93;;;;;;;10.96;100.00;98605.09;5116358;28;20262;-77
2022/10/13 03:49:17;;;;;;;28.60;16.87;;;;;;;10.89;100.00;98602.00;5117556;28;20257;-78
2022/10/13 03:51:44;;;;;;;27.57;16.93;;;;;;;10.94;100.00;98607.00;5117403;28;20224;-77
2022/10/13 03:54:11;;;;;;;32.50;17.93;;;;;;;11.02;100.00;98596.78;5117306;28;20277;-78
2022/10/13 03:56:39;;;;;;;31.63;18.10;;;;;;;11.08;100.00;98601.69;5104207;28;20663;-78
2022/10/13 03:59:07;;;;;;;30.87;16.97;;;;;;;11.14;100.00;98604.78;5103945;28;20257;-78
2022/10/13 04:01:35;;;;;;;27.53;17.03;;;;;;;11.20;100.00;98609.66;5106634;28;20495;-77
2022/10/13 04:04:06;;;;;;;28.57;17.60;;;;;;;11.28;100.00;98601.25;5098800;28;20226;-77
2022/10/13 04:06:33;;;;;;;28.67;18.00;;;;;;;11.37;100.00;98604.16;5099596;28;20696;-77
2022/10/13 04:08:59;;;;;;;32.93;17.87;;;;;;;11.43;100.00;98610.84;5099032;28;20265;-77
2022/10/13 04:11:26;;;;;;;29.53;17.27;;;;;;;11.47;100.00;98609.69;5098728;28;20302;-77
2022/10/13 04:13:52;;;;;;;29.53;17.30;;;;;;;11.54;100.00;98610.97;5104932;28;20262;-77
2022/10/13 04:16:22;;;;;;;28.17;16.67;;;;;;;11.58;100.00;98612.50;5099351;28;20336;-76
2022/10/13 04:18:53;;;;;;;30.20;17.53;;;;;;;11.62;100.00;98606.09;5098587;28;20225;-77
2022/10/13 04:21:20;;;;;;;25.23;16.30;;;;;;;11.66;100.00;98602.28;5098593;28;20639;-77
2022/10/13 04:23:47;;;;;;;26.33;16.70;;;;;;;11.67;100.00;98604.00;5098806;28;20264;-77
2022/10/13 04:26:18;;;;;;;26.10;16.27;;;;;;;11.59;100.00;98607.13;5097753;28;20264;-78
2022/10/13 04:28:45;;;;;;;23.67;15.10;;;;;;;11.45;100.00;98606.31;5098540;28;20227;-77
2022/10/13 04:31:12;;;;;;;24.03;15.10;;;;;;;11.36;100.00;98602.44;5097855;28;20374;-77
2022/10/13 04:33:39;;;;;;;22.57;14.57;;;;;;;11.26;100.00;98603.97;5098272;28;20262;-77
2022/10/13 04:36:11;;;;;;;20.30;14.10;;;;;;;11.13;100.00;98602.25;5115984;28;20279;-77
2022/10/13 04:38:37;;;;;;;24.97;13.77;;;;;;;11.04;100.00;98608.09;5116866;28;20229;-77
2022/10/13 04:41:05;;;;;;;21.20;13.80;;;;;;;10.93;100.00;98615.88;5116882;28;20257;-77
2022/10/13 04:43:33;;;;;;;20.03;13.67;;;;;;;10.85;100.00;98612.88;5115855;28;20269;-77
2022/10/13 04:46:03;;;;;;;19.70;14.03;;;;;;;10.81;100.00;98612.22;5116451;28;20266;-77
2022/10/13 04:48:30;;;;;;;21.90;14.03;;;;;;;10.89;100.00;98609.09;5116702;28;20257;-77
2022/10/13 04:51:02;;;;;;;25.27;14.43;;;;;;;10.94;100.00;98601.72;5116719;28;20263;-77
2022/10/13 04:53:30;;;;;;;20.23;14.20;;;;;;;10.97;100.00;98596.22;5113821;28;20644;-77
2022/10/13 04:56:00;;;;;;;20.67;14.70;;;;;;;10.99;100.00;98602.25;5110428;28;20272;-77
2022/10/13 04:58:27;;;;;;;21.87;14.67;;;;;;;10.99;100.00;98594.31;5097265;28;20642;-77
2022/10/13 05:00:53;;;;;;;20.07;14.43;;;;;;;10.93;100.00;98584.13;5098256;28;20264;-77
2022/10/13 05:03:20;;;;;;;22.33;14.17;;;;;;;10.86;100.00;98580.19;5097877;28;20258;-77
2022/10/13 05:05:46;;;;;;;19.93;14.57;;;;;;;10.77;100.00;98583.41;5097974;28;20256;-77
2022/10/13 05:08:13;;;;;;;19.50;13.27;;;;;;;10.68;100.00;98583.97;5098063;28;20257;-77
2022/10/13 05:10:41;;;;;;;21.10;13.70;;;;;;;10.60;100.00;98586.25;5097955;28;20262;-77
2022/10/13 05:13:08;;;;;;;24.20;14.13;;;;;;;10.54;100.00;98591.91;5097935;28;20260;-77
2022/10/13 05:15:34;;;;;;;20.80;14.13;;;;;;;10.49;100.00;98596.63;5110734;28;20617;-77
2022/10/13 05:18:01;;;;;;;22.77;14.03;;;;;;;10.47;100.00;98603.81;5097870;28;20262;-77
2022/10/13 05:20:28;;;;;;;21.00;14.50;;;;;;;10.48;100.00;98600.22;5096177;28;20267;-77
2022/10/13 05:22:54;;;;;;;21.57;14.03;;;;;;;10.51;100.00;98595.59;5098688;28;20264;-77
2022/10/13 05:25:21;;;;;;;19.83;13.80;;;;;;;10.54;100.00;98597.22;5098069;28;20629;-77
2022/10/13 05:27:49;;;;;;;20.00;13.97;;;;;;;10.58;100.00;98604.03;5097809;28;20260;-77
2022/10/13 05:30:16;;;;;;;23.20;15.10;;;;;;;10.64;100.00;98603.63;5097796;28;20260;-77
2022/10/13 05:32:42;;;;;;;22.33;15.70;;;;;;;10.65;100.00;98597.41;5098097;28;20262;-77
2022/10/13 05:35:12;;;;;;;22.93;14.83;;;;;;;10.71;100.00;98602.31;5098023;28;20284;-77
2022/10/13 05:37:39;;;;;;;26.53;16.97;;;;;;;10.75;100.00;98598.50;5097586;28;20264;-77
2022/10/13 05:40:06;;;;;;;24.10;15.27;;;;;;;10.88;100.00;98607.41;5097558;28;20267;-77
2022/10/13 05:42:35;;;;;;;23.50;15.53;;;;;;;10.96;100.00;98599.81;5098540;28;20226;-77
2022/10/13 05:45:03;;;;;;;22.10;14.77;;;;;;;11.06;100.00;98598.31;5099904;28;20661;-77
2022/10/13 05:47:30;;;;;;;21.13;14.10;;;;;;;11.12;100.00;98598.75;5101463;28;20265;-77
2022/10/13 05:49:56;;;;;;;23.53;15.33;;;;;;;11.16;100.00;98599.38;5101537;28;20305;-77
2022/10/13 05:52:25;;;;;;;23.17;13.50;;;;;;;11.20;100.00;98603.56;5101825;28;20269;-77
2022/10/13 05:54:56;;;;;;;20.73;13.83;;;;;;;11.23;100.00;98603.34;5101173;28;20243;-77
2022/10/13 05:57:26;;;;;;;21.40;14.70;;;;;;;11.22;100.00;98610.44;5111057;28;20260;-76
2022/10/13 05:59:56;;;;;;;20.73;14.40;;;;;;;11.22;100.00;98601.66;5113223;28;20606;-77
2022/10/13 06:02:30;;;;;;;20.83;13.43;;;;;;;11.21;100.00;98592.88;5104174;28;20267;-77
2022/10/13 06:04:57;;;;;;;21.63;14.20;;;;;;;11.21;100.00;98589.38;5101244;28;20223;-79
2022/10/13 06:07:24;;;;;;;19.67;14.00;;;;;;;11.25;100.00;98586.41;5101178;28;20254;-77
2022/10/13 06:09:51;;;;;;;22.10;15.33;;;;;;;11.34;100.00;98585.84;5101196;28;20262;-77
2022/10/13 06:12:18;;;;;;;22.80;14.00;;;;;;;11.39;100.00;98582.88;5115203;28;20266;-77
2022/10/13 06:14:45;;;;;;;20.97;15.03;;;;;;;11.39;100.00;98578.44;5101211;28;20311;-77
2022/10/13 06:17:11;;;;;;;26.53;15.23;;;;;;;11.42;100.00;98572.09;5101319;28;20232;-77
2022/10/13 06:19:39;;;;;;;21.30;13.80;;;;;;;11.46;100.00;98578.88;5102040;28;20261;-76
2022/10/13 06:22:06;;;;;;;21.70;13.83;;;;;;;11.50;100.00;98580.38;5108236;28;20228;-77
2022/10/13 06:24:33;;;;;;;21.53;14.73;;;;;;;11.55;100.00;98579.13;5110812;28;20215;-77
2022/10/13 06:26:59;;;;;;;18.43;13.33;;;;;;;11.63;100.00;98583.94;5110891;28;20229;-76
2022/10/13 06:29:26;;;;;;;20.50;13.83;;;;;;;11.72;100.00;98585.97;5119364;28;20250;-76
2022/10/13 06:31:53;;;;;;;21.27;14.50;;;;;;;11.80;100.00;98592.47;5112320;28;20286;-77
2022/10/13 06:34:19;;;;;;;23.27;15.37;;;;;;;11.88;100.00;98598.13;5104559;28;20221;-77
2022/10/13 06:36:47;;;;;;;20.67;13.80;;;;;;;11.91;100.00;98599.69;5100414;28;20279;-77
2022/10/13 06:39:14;;;;;;;23.57;14.83;;;;;;;11.90;100.00;98593.56;5098321;28;20264;-76
2022/10/13 06:41:41;;;;;;;21.27;13.73;;;;;;;11.92;100.00;98590.81;5099965;28;20269;-76
2022/10/13 06:44:07;;;;;;;21.00;13.93;;;;;;;11.88;100.00;98582.22;5098952;28;20266;-76
2022/10/13 06:46:34;;;;;;;21.67;13.40;;;;;;;11.90;100.00;98590.91;5098820;28;20257;-76
2022/10/13 06:49:00;;;;;;;19.50;13.27;;;;;;;11.93;100.00;98589.84;5098764;28;20262;-76
2022/10/13 06:51:27;;;;;;;20.97;14.57;;;;;;;11.91;100.00;98587.31;5099630;28;20269;-77
2022/10/13 06:53:56;;;;;;;19.20;13.47;;;;;;;11.94;100.00;98591.53;5098549;28;20226;-76
2022/10/13 06:56:23;;;;;;;17.67;13.07;;;;;;;11.97;100.00;98586.03;5100031;28;20272;-76
2022/10/13 06:58:50;;;;;;;22.23;13.23;;;;;;;12.00;100.00;98591.13;5098822;28;20291;-76
2022/10/13 07:01:16;;;;;;;21.03;13.80;;;;;;;12.04;100.00;98582.03;5099926;28;20298;-76
2022/10/13 07:03:43;;;;;;;21.23;14.00;;;;;;;12.09;100.00;98585.19;5097212;28;20257;-76
2022/10/13 07:06:10;;;;;;;20.97;13.30;;;;;;;12.14;100.00;98583.09;5096950;28;20257;-78
2022/10/13 07:08:37;;;;;;;20.03;14.17;;;;;;;12.19;100.00;98587.13;5094529;28;20245;-79
2022/10/13 07:11:11;;;;;;;19.10;13.70;;;;;;;12.24;100.00;98586.81;5098800;28;20307;-80
2022/10/13 07:13:38;;;;;;;19.27;13.77;;;;;;;12.31;100.00;98588.09;5095691;28;20319;-79
2022/10/13 07:16:06;;;;;;;21.27;13.57;;;;;;;12.34;100.00;98588.72;5096827;28;20298;-81
2022/10/13 07:18:33;;;;;;;22.50;14.00;;;;;;;12.38;100.00;98592.00;5097228;28;20264;-81
2022/10/13 07:21:00;;;;;;;20.20;13.57;;;;;;;12.39;100.00;98591.03;5098031;28;20266;-77
2022/10/13 07:23:27;;;;;;;19.50;12.93;;;;;;;12.43;100.00;98585.44;5104310;28;20224;-76
2022/10/13 07:25:55;;;;;;;20.77;13.70;;;;;;;12.45;100.00;98578.22;5096081;28;20698;-77
2022/10/13 07:28:24;;;;;;;19.87;13.93;;;;;;;12.48;100.00;98583.31;5100749;28;20287;-77
2022/10/13 07:30:51;;;;;;;21.30;14.03;;;;;;;12.53;100.00;98575.06;5100537;28;20227;-77
2022/10/13 07:33:18;;;;;;;21.73;15.63;;;;;;;12.54;100.00;98576.75;5103367;28;20274;-76
2022/10/13 07:35:44;;;;;;;21.03;15.20;;;;;;;12.55;100.00;98575.78;5101754;28;20283;-75
2022/10/13 07:38:11;;;;;;;22.10;14.47;;;;;;;12.59;100.00;98579.94;5101877;28;20269;-75
2022/10/13 07:40:38;;;;;;;21.27;14.20;;;;;;;12.64;100.00;98581.28;5102928;28;20261;-76
2022/10/13 07:43:05;;;;;;;19.97;12.80;;;;;;;12.72;100.00;98575.44;5104046;28;20293;-78
2022/10/13 07:45:33;;;;;;;21.63;13.70;;;;;;;12.86;100.00;98593.88;5100981;28;20273;-75
2022/10/13 07:48:00;;;;;;;20.40;13.07;;;;;;;12.95;100.00;98582.63;5101389;28;20297;-75
2022/10/13 07:50:26;;;;;;;18.37;12.83;;;;;;;13.08;100.00;98583.47;5102664;28;20258;-77
2022/10/13 07:52:53;;;;;;;18.67;13.20;;;;;;;13.22;100.00;98593.94;5105139;28;20601;-76
2022/10/13 07:55:20;;;;;;;20.30;14.07;;;;;;;13.26;100.00;98588.28;5104146;28;20262;-78
2022/10/13 07:57:46;;;;;;;21.17;12.67;;;;;;;13.34;100.00;98590.38;5102458;28;20269;-76
2022/10/13 08:00:13;;;;;;;17.77;12.63;;;;;;;13.42;100.00;98588.00;5101835;28;20276;-76
2022/10/13 08:02:41;;;;;;;18.63;13.87;;;;;;;13.49;100.00;98583.94;5105172;28;20261;-77
2022/10/13 08:05:09;;;;;;;18.30;12.87;;;;;;;13.61;100.00;98575.91;5107391;28;20258;-76
2022/10/13 08:07:36;;;;;;;17.90;12.57;;;;;;;13.72;100.00;98575.97;5101155;28;20622;-77
2022/10/13 08:10:04;;;;;;;15.43;11.63;;;;;;;13.81;100.00;98579.75;5101693;28;20543;-77
2022/10/13 08:12:30;;;;;;;18.90;12.83;;;;;;;13.85;100.00;98575.88;5100515;28;20222;-76
2022/10/13 08:14:57;;;;;;;19.17;12.60;;;;;;;13.84;100.00;98571.53;5102539;28;20262;-77
2022/10/13 08:17:23;;;;;;;17.70;11.37;;;;;;;13.84;100.00;98574.19;5101399;28;20282;-76
2022/10/13 08:19:52;;;;;;;14.87;11.63;;;;;;;13.80;100.00;98564.75;5102442;28;20270;-77
2022/10/13 08:22:18;;;;;;;19.17;12.03;;;;;;;13.78;100.00;98558.72;5106223;28;20257;-76
2022/10/13 08:24:45;;;;;;;18.47;12.20;;;;;;;13.76;100.00;98555.34;5101340;28;20254;-77
2022/10/13 08:27:19;;;;;;;20.30;12.07;;;;;;;13.71;100.00;98561.00;5102529;28;20262;-77
2022/10/13 08:29:46;;;;;;;16.37;11.73;;;;;;;13.77;100.00;98557.03;5103068;28;20227;-77
2022/10/13 08:32:13;;;;;;;15.93;11.30;;;;;;;13.72;100.00;98564.50;5105751;28;20260;-77
2022/10/13 08:34:39;;;;;;;17.43;11.50;;;;;;;13.79;100.00;98574.56;5102081;28;20263;-77
2022/10/13 08:37:13;;;;;;;17.00;11.50;;;;;;;13.89;100.00;98566.72;5102000;28;20279;-77
2022/10/13 08:39:40;;;;;;;17.77;11.53;;;;;;;14.01;100.00;98555.16;5113286;28;20258;-76
2022/10/13 08:42:14;;;;;;;17.87;11.83;;;;;;;14.21;100.00;98563.34;5105162;28;20288;-76
2022/10/13 08:44:45;;;;;;;16.23;12.07;;;;;;;14.33;100.00;98564.19;5102061;28;20262;-77
2022/10/13 08:47:17;;;;;;;18.20;11.23;;;;;;;14.51;100.00;98574.28;5102021;28;20337;-77
2022/10/13 08:49:45;;;;;;;16.57;11.57;;;;;;;14.62;100.00;98560.13;5103727;28;20260;-77
2022/10/13 08:52:18;;;;;;;15.83;10.00;;;;;;;14.78;100.00;98557.97;5102741;28;20227;-77
2022/10/13 08:54:44;;;;;;;17.33;10.87;;;;;;;14.91;100.00;98564.81;5101928;28;20260;-77
2022/10/13 08:57:11;;;;;;;12.87;9.90;;;;;;;15.05;100.00;98556.59;5098609;28;20270;-77
2022/10/13 08:59:38;;;;;;;16.67;9.53;;;;;;;15.24;100.00;98556.81;5105551;28;20262;-77
2022/10/13 09:02:12;;;;;;;15.67;9.63;;;;;;;15.47;100.00;98557.63;5102318;28;20264;-77
2022/10/13 09:04:40;;;;;;;15.27;9.63;;;;;;;15.69;100.00;98555.72;5101754;28;20228;-77
2022/10/13 09:07:15;;;;;;;13.00;8.60;;;;;;;15.89;100.00;98549.56;5102566;28;20276;-76
2022/10/13 09:09:42;;;;;;;14.87;9.00;;;;;;;16.06;100.00;98540.16;5104313;28;20574;-76
2022/10/13 09:12:11;;;;;;;14.57;9.00;;;;;;;16.19;100.00;98538.97;5101781;28;20271;-76
2022/10/13 09:14:39;;;;;;;13.93;8.43;;;;;;;16.30;100.00;98547.75;5101215;28;20282;-77
2022/10/13 09:17:18;;;;;;;11.83;8.93;;;;;;;16.42;100.00;98540.53;5104207;28;20245;-76
2022/10/13 09:19:56;;;;;;;11.37;7.80;;;;;;;16.51;100.00;98543.25;5106607;28;20308;-77
2022/10/13 09:22:27;;;;;;;12.23;7.90;;;;;;;16.58;98.98;98538.25;5105824;28;20576;-77
2022/10/13 09:25:10;;;;;;;12.77;8.00;;;;;;;16.65;97.00;98540.22;5107116;28;20265;-77
2022/10/13 09:27:43;;;;;;;11.07;7.93;;;;;;;16.67;97.27;98540.09;5106430;28;20257;-77
2022/10/13 09:30:41;;;;;;;13.53;7.50;;;;;;;16.74;97.59;98543.94;5113708;28;20271;-77
2022/10/13 09:33:21;;;;;;;11.97;7.57;;;;;;;16.81;97.07;98529.91;5058306;28;20673;-77
2022/10/13 09:36:05;;;;;;;10.67;7.60;;;;;;;16.91;96.49;98535.28;5102528;28;20261;-77
2022/10/13 09:38:34;;;;;;;9.33;7.27;;;;;;;16.97;95.42;98535.59;5115946;28;20222;-77
2022/10/13 09:41:04;;;;;;;16.83;7.63;;;;;;;16.99;94.56;98538.97;5110679;28;20230;-78
2022/10/13 09:43:34;;;;;;;8.77;7.03;;;;;;;16.99;93.96;98528.28;5105669;28;20598;-80
2022/10/13 09:46:02;;;;;;;8.80;6.57;;;;;;;17.02;94.06;98528.00;5105459;28;20529;-78
2022/10/13 09:48:31;;;;;;;10.30;7.00;;;;;;;17.05;93.44;98533.09;5106672;28;20312;-77
2022/10/13 09:50:58;;;;;;;8.93;6.83;;;;;;;17.11;93.45;98542.38;5108142;28;20261;-77
2022/10/13 09:53:31;;;;;;;13.30;7.50;;;;;;;17.14;93.25;98536.75;5106345;28;20276;-77
2022/10/13 09:56:15;;;;;;;9.23;6.40;;;;;;;17.22;92.89;98534.25;5118750;28;20225;-77
2022/10/13 09:58:50;;;;;;;12.47;7.57;;;;;;;17.22;91.43;98520.88;5112194;28;20512;-79
2022/10/13 10:01:25;;;;;;;11.83;7.27;;;;;;;17.24;92.13;98525.13;5103445;28;20223;-77
2022/10/13 10:03:53;;;;;;;9.77;6.93;;;;;;;17.26;91.60;98516.97;5097088;28;20272;-77
2022/10/13 10:06:20;;;;;;;8.97;6.10;;;;;;;17.28;91.88;98523.00;5106538;28;20261;-76
2022/10/13 10:08:54;;;;;;;9.07;5.87;;;;;;;17.31;92.13;98523.56;5103993;28;20250;-77
2022/10/13 10:11:27;;;;;;;7.43;5.57;;;;;;;17.32;92.14;98517.25;5110171;28;20283;-76
2022/10/13 10:13:54;;;;;;;10.73;5.97;;;;;;;17.31;92.46;98523.56;5111174;28;20258;-79
2022/10/13 10:16:30;;;;;;;6.87;6.17;;;;;;;17.21;91.03;98517.38;5103700;28;20242;-78
2022/10/13 10:19:04;;;;;;;7.65;6.38;;;;;;;17.14;91.22;98521.56;5101358;28;20793;-74
2022/10/13 10:21:36;;;;;;;8.67;6.30;;;;;;;17.11;90.76;98527.19;5112397;28;20222;-75
2022/10/13 10:24:15;;;;;;;9.03;6.20;;;;;;;17.03;91.37;98526.19;5110751;28;20528;-75
2022/10/13 10:26:54;;;;;;;9.63;6.03;;;;;;;16.98;91.13;98520.41;5086792;28;20225;-73
2022/10/13 10:29:55;;;;;;;7.73;5.90;;;;;;;16.91;92.33;98519.25;5098934;28;20230;-87
2022/10/13 10:32:28;;;;;;;8.60;6.17;;;;;;;16.94;93.03;98525.16;5105852;28;20308;-78
2022/10/13 10:34:59;;;;;;;7.90;5.50;;;;;;;16.90;92.50;98512.25;5113745;28;20264;-79
2022/10/13 10:37:40;;;;;;;7.97;5.83;;;;;;;16.86;91.70;98506.34;5111910;28;20667;-79
2022/10/13 10:40:21;;;;;;;7.63;5.57;;;;;;;16.84;91.75;98508.31;5104450;28;20225;-78
2022/10/13 10:43:03;;;;;;;7.87;5.30;;;;;;;16.87;91.54;98508.00;5104209;28;20287;-79
2022/10/13 10:45:33;;;;;;;6.53;5.27;;;;;;;16.89;92.15;98508.72;5112772;28;20234;-79
2022/10/13 10:48:04;;;;;;;8.10;5.50;;;;;;;16.88;92.33;98507.03;5115250;28;20222;-79
2022/10/13 10:50:33;;;;;;;7.47;5.10;;;;;;;16.92;92.07;98505.78;5115242;28;20259;-78
2022/10/13 10:53:04;;;;;;;7.40;5.53;;;;;;;16.96;92.27;98509.03;5112315;28;20229;-78
2022/10/13 10:55:35;;;;;;;7.20;5.20;;;;;;;16.96;91.96;98501.84;5112415;28;20283;-79
2022/10/13 10:58:20;;;;;;;7.63;5.73;;;;;;;16.98;92.27;98494.56;5106607;28;20283;-79
2022/10/13 11:00:56;;;;;;;6.23;5.20;;;;;;;17.02;92.34;98490.63;5111236;28;20581;-79
2022/10/13 11:03:36;;;;;;;7.53;5.00;;;;;;;17.09;92.91;98489.09;5113791;28;20292;-79
2022/10/13 11:06:05;;;;;;;6.17;5.07;;;;;;;17.18;93.24;98485.59;5114939;28;20268;-78
2022/10/13 11:08:40;;;;;;;6.90;5.30;;;;;;;17.26;92.49;98480.38;5113980;28;20281;-79
2022/10/13 11:11:30;;;;;;;7.63;5.67;;;;;;;17.34;92.23;98480.56;5112568;28;20228;-78
2022/10/13 11:14:00;;;;;;;6.03;4.77;;;;;;;17.37;91.68;98474.97;5114572;28;20511;-78
2022/10/13 11:16:30;;;;;;;7.20;5.43;;;;;;;17.40;91.25;98473.84;5113157;28;20261;-77
2022/10/13 11:19:08;;;;;;;6.87;5.03;;;;;;;17.42;91.09;98462.03;5112043;28;20254;-78
2022/10/13 11:22:12;;;;;;;12.60;6.43;;;;;;;17.48;90.50;98450.78;5114471;28;20256;-78
2022/10/13 11:25:02;;;;;;;7.70;5.20;;;;;;;17.58;90.25;98446.28;5098004;28;20226;-78
2022/10/13 11:27:43;;;;;;;7.67;4.97;;;;;;;17.69;89.13;98442.59;5108528;28;20256;-78